sensor_id;sensor_type;location;lat;lon;timestamp;P1;durP1;ratioP1;P2;durP2;ratioP2
27792;SDS011;15174;48.190;11.462;2024-03-23T00:55:29;3.13;;;1.90;;
27792;SDS011;15174;48.190;11.462;2024-03-23T00:57:55;3.15;;;2.03;;
27792;SDS011;15174;48.190;11.462;2024-03-23T01:00:21;4.45;;;1.80;;
27792;SDS011;15174;48.190;11.462;2024-03-23T01:02:47;2.42;;;1.80;;
27792;SDS011;15174;48.190;11.462;2024-03-23T01:05:13;2.97;;;1.83;;
27792;SDS011;15174;48.190;11.462;2024-03-23T01:07:39;2.55;;;1.67;;
27792;SDS011;15174;48.190;11.462;2024-03-23T01:10:06;3.75;;;2.10;;
27792;SDS011;15174;48.190;11.462;2024-03-23T01:12:32;5.53;;;2.10;;
27792;SDS011;15174;48.190;11.462;2024-03-23T01:14:58;3.50;;;1.83;;
27792;SDS011;15174;48.190;11.462;2024-03-23T01:17:24;5.40;;;1.67;;
27792;SDS011;15174;48.190;11.462;2024-03-23T01:19:50;3.88;;;1.45;;
27792;SDS011;15174;48.190;11.462;2024-03-23T01:22:16;3.88;;;1.58;;
27792;SDS011;15174;48.190;11.462;2024-03-23T01:24:42;2.85;;;1.67;;
27792;SDS011;15174;48.190;11.462;2024-03-23T01:27:08;3.20;;;1.80;;
27792;SDS011;15174;48.190;11.462;2024-03-23T01:29:35;6.30;;;2.00;;
27792;SDS011;15174;48.190;11.462;2024-03-23T01:32:01;2.70;;;2.00;;
27792;SDS011;15174;48.190;11.462;2024-03-23T01:34:27;3.10;;;1.70;;
27792;SDS011;15174;48.190;11.462;2024-03-23T01:36:53;6.38;;;1.98;;
27792;SDS011;15174;48.190;11.462;2024-03-23T01:39:19;8.77;;;2.10;;
27792;SDS011;15174;48.190;11.462;2024-03-23T01:41:45;5.28;;;1.90;;
27792;SDS011;15174;48.190;11.462;2024-03-23T01:44:11;3.58;;;2.10;;
27792;SDS011;15174;48.190;11.462;2024-03-23T01:46:38;4.05;;;2.10;;
27792;SDS011;15174;48.190;11.462;2024-03-23T01:49:06;7.55;;;2.30;;
27792;SDS011;15174;48.190;11.462;2024-03-23T01:51:33;3.35;;;1.85;;
27792;SDS011;15174;48.190;11.462;2024-03-23T01:54:00;4.13;;;2.15;;
27792;SDS011;15174;48.190;11.462;2024-03-23T01:56:28;3.17;;;2.10;;
27792;SDS011;15174;48.190;11.462;2024-03-23T01:58:55;2.63;;;1.85;;
27792;SDS011;15174;48.190;11.462;2024-03-23T02:01:21;4.05;;;2.03;;
27792;SDS011;15174;48.190;11.462;2024-03-23T02:03:47;3.58;;;2.15;;
27792;SDS011;15174;48.190;11.462;2024-03-23T02:06:13;5.15;;;2.00;;
27792;SDS011;15174;48.190;11.462;2024-03-23T02:08:39;2.25;;;1.80;;
27792;SDS011;15174;48.190;11.462;2024-03-23T02:11:06;4.50;;;2.30;;
27792;SDS011;15174;48.190;11.462;2024-03-23T02:13:32;2.58;;;1.90;;
27792;SDS011;15174;48.190;11.462;2024-03-23T02:15:58;5.18;;;2.08;;
27792;SDS011;15174;48.190;11.462;2024-03-23T02:18:24;3.92;;;2.10;;
27792;SDS011;15174;48.190;11.462;2024-03-23T02:20:50;2.15;;;1.90;;
27792;SDS011;15174;48.190;11.462;2024-03-23T02:23:16;3.53;;;1.80;;
27792;SDS011;15174;48.190;11.462;2024-03-23T02:25:43;2.95;;;1.95;;
27792;SDS011;15174;48.190;11.462;2024-03-23T02:28:09;7.90;;;2.38;;
27792;SDS011;15174;48.190;11.462;2024-03-23T02:30:36;3.03;;;2.20;;
27792;SDS011;15174;48.190;11.462;2024-03-23T02:33:02;2.97;;;2.20;;
27792;SDS011;15174;48.190;11.462;2024-03-23T02:35:28;2.92;;;1.73;;
27792;SDS011;15174;48.190;11.462;2024-03-23T02:37:54;6.63;;;2.08;;
27792;SDS011;15174;48.190;11.462;2024-03-23T02:40:22;3.20;;;2.17;;
27792;SDS011;15174;48.190;11.462;2024-03-23T02:42:48;6.15;;;1.90;;
27792;SDS011;15174;48.190;11.462;2024-03-23T02:45:15;4.13;;;2.15;;
27792;SDS011;15174;48.190;11.462;2024-03-23T02:47:41;2.53;;;1.70;;
27792;SDS011;15174;48.190;11.462;2024-03-23T02:50:07;6.03;;;2.13;;
27792;SDS011;15174;48.190;11.462;2024-03-23T02:52:34;2.58;;;1.60;;
27792;SDS011;15174;48.190;11.462;2024-03-23T02:55:00;3.20;;;1.92;;
27792;SDS011;15174;48.190;11.462;2024-03-23T02:57:27;2.80;;;2.00;;
27792;SDS011;15174;48.190;11.462;2024-03-23T02:59:53;2.70;;;1.90;;
27792;SDS011;15174;48.190;11.462;2024-03-23T03:02:20;3.15;;;1.73;;
27792;SDS011;15174;48.190;11.462;2024-03-23T03:04:46;5.82;;;2.28;;
27792;SDS011;15174;48.190;11.462;2024-03-23T03:07:12;2.92;;;1.90;;
27792;SDS011;15174;48.190;11.462;2024-03-23T03:09:38;3.05;;;2.15;;
27792;SDS011;15174;48.190;11.462;2024-03-23T03:12:08;3.80;;;1.98;;
27792;SDS011;15174;48.190;11.462;2024-03-23T03:14:34;3.60;;;1.67;;
27792;SDS011;15174;48.190;11.462;2024-03-23T03:17:00;3.13;;;2.08;;
27792;SDS011;15174;48.190;11.462;2024-03-23T03:19:26;4.93;;;1.70;;
27792;SDS011;15174;48.190;11.462;2024-03-23T03:21:52;6.03;;;1.88;;
27792;SDS011;15174;48.190;11.462;2024-03-23T03:24:19;6.82;;;2.60;;
27792;SDS011;15174;48.190;11.462;2024-03-23T03:26:45;8.98;;;2.70;;
27792;SDS011;15174;48.190;11.462;2024-03-23T03:29:11;7.65;;;2.47;;
27792;SDS011;15174;48.190;11.462;2024-03-23T03:31:38;3.13;;;2.08;;
27792;SDS011;15174;48.190;11.462;2024-03-23T03:34:04;3.42;;;2.05;;
27792;SDS011;15174;48.190;11.462;2024-03-23T03:36:30;3.13;;;1.90;;
27792;SDS011;15174;48.190;11.462;2024-03-23T03:38:56;4.70;;;2.10;;
27792;SDS011;15174;48.190;11.462;2024-03-23T03:41:22;5.20;;;1.50;;
27792;SDS011;15174;48.190;11.462;2024-03-23T03:43:48;4.35;;;1.75;;
27792;SDS011;15174;48.190;11.462;2024-03-23T03:46:14;3.53;;;1.98;;
27792;SDS011;15174;48.190;11.462;2024-03-23T03:48:40;2.85;;;1.77;;
27792;SDS011;15174;48.190;11.462;2024-03-23T03:51:06;2.35;;;1.70;;
27792;SDS011;15174;48.190;11.462;2024-03-23T03:53:33;3.25;;;1.85;;
27792;SDS011;15174;48.190;11.462;2024-03-23T03:56:01;3.05;;;1.67;;
27792;SDS011;15174;48.190;11.462;2024-03-23T03:58:28;5.85;;;1.75;;
27792;SDS011;15174;48.190;11.462;2024-03-23T04:00:54;4.45;;;1.63;;
27792;SDS011;15174;48.190;11.462;2024-03-23T04:03:20;5.18;;;1.85;;
27792;SDS011;15174;48.190;11.462;2024-03-23T04:05:52;2.05;;;1.70;;
27792;SDS011;15174;48.190;11.462;2024-03-23T04:08:18;4.32;;;1.85;;
27792;SDS011;15174;48.190;11.462;2024-03-23T04:10:44;4.47;;;1.55;;
27792;SDS011;15174;48.190;11.462;2024-03-23T04:13:11;5.00;;;1.67;;
27792;SDS011;15174;48.190;11.462;2024-03-23T04:15:37;3.63;;;1.80;;
27792;SDS011;15174;48.190;11.462;2024-03-23T04:18:03;2.22;;;1.58;;
27792;SDS011;15174;48.190;11.462;2024-03-23T04:20:29;3.45;;;1.70;;
27792;SDS011;15174;48.190;11.462;2024-03-23T04:22:55;2.85;;;1.40;;
27792;SDS011;15174;48.190;11.462;2024-03-23T04:25:21;3.47;;;1.65;;
27792;SDS011;15174;48.190;11.462;2024-03-23T04:27:47;2.13;;;1.63;;
27792;SDS011;15174;48.190;11.462;2024-03-23T04:30:13;2.88;;;1.40;;
27792;SDS011;15174;48.190;11.462;2024-03-23T04:32:40;7.18;;;2.15;;
27792;SDS011;15174;48.190;11.462;2024-03-23T04:35:07;6.30;;;1.98;;
27792;SDS011;15174;48.190;11.462;2024-03-23T04:37:36;2.70;;;1.58;;
27792;SDS011;15174;48.190;11.462;2024-03-23T04:40:03;6.53;;;1.80;;
27792;SDS011;15174;48.190;11.462;2024-03-23T04:42:29;1.83;;;1.50;;
27792;SDS011;15174;48.190;11.462;2024-03-23T04:44:55;6.82;;;1.60;;
27792;SDS011;15174;48.190;11.462;2024-03-23T04:47:22;4.63;;;1.60;;
27792;SDS011;15174;48.190;11.462;2024-03-23T04:49:49;8.30;;;1.95;;
27792;SDS011;15174;48.190;11.462;2024-03-23T04:52:15;3.60;;;1.63;;
27792;SDS011;15174;48.190;11.462;2024-03-23T04:54:41;2.53;;;1.65;;
27792;SDS011;15174;48.190;11.462;2024-03-23T04:57:08;4.05;;;1.92;;
27792;SDS011;15174;48.190;11.462;2024-03-23T04:59:34;2.15;;;1.40;;
27792;SDS011;15174;48.190;11.462;2024-03-23T05:02:00;2.13;;;1.45;;
27792;SDS011;15174;48.190;11.462;2024-03-23T05:04:26;1.80;;;1.35;;
27792;SDS011;15174;48.190;11.462;2024-03-23T05:06:52;3.22;;;1.50;;
27792;SDS011;15174;48.190;11.462;2024-03-23T05:09:18;3.38;;;1.20;;
27792;SDS011;15174;48.190;11.462;2024-03-23T05:11:45;2.80;;;1.83;;
27792;SDS011;15174;48.190;11.462;2024-03-23T05:14:12;5.22;;;1.88;;
27792;SDS011;15174;48.190;11.462;2024-03-23T05:16:38;3.92;;;1.90;;
27792;SDS011;15174;48.190;11.462;2024-03-23T05:19:04;3.10;;;1.63;;
27792;SDS011;15174;48.190;11.462;2024-03-23T05:21:30;3.15;;;1.38;;
27792;SDS011;15174;48.190;11.462;2024-03-23T05:23:56;4.32;;;1.80;;
27792;SDS011;15174;48.190;11.462;2024-03-23T05:26:23;6.97;;;2.10;;
27792;SDS011;15174;48.190;11.462;2024-03-23T05:28:49;2.08;;;1.40;;
27792;SDS011;15174;48.190;11.462;2024-03-23T05:31:25;7.45;;;1.40;;
27792;SDS011;15174;48.190;11.462;2024-03-23T05:33:51;2.67;;;1.75;;
27792;SDS011;15174;48.190;11.462;2024-03-23T05:36:17;7.22;;;2.00;;
27792;SDS011;15174;48.190;11.462;2024-03-23T05:38:43;2.60;;;1.42;;
27792;SDS011;15174;48.190;11.462;2024-03-23T05:41:10;2.67;;;1.45;;
27792;SDS011;15174;48.190;11.462;2024-03-23T05:43:36;6.75;;;1.42;;
27792;SDS011;15174;48.190;11.462;2024-03-23T05:46:02;3.30;;;1.33;;
27792;SDS011;15174;48.190;11.462;2024-03-23T05:48:30;2.65;;;1.58;;
27792;SDS011;15174;48.190;11.462;2024-03-23T05:50:56;3.55;;;1.35;;
27792;SDS011;15174;48.190;11.462;2024-03-23T05:53:23;1.85;;;1.25;;
27792;SDS011;15174;48.190;11.462;2024-03-23T05:55:49;2.33;;;1.45;;
27792;SDS011;15174;48.190;11.462;2024-03-23T05:58:16;5.65;;;1.65;;
27792;SDS011;15174;48.190;11.462;2024-03-23T06:00:43;2.47;;;1.40;;
27792;SDS011;15174;48.190;11.462;2024-03-23T06:03:09;2.25;;;1.17;;
27792;SDS011;15174;48.190;11.462;2024-03-23T06:05:35;2.50;;;1.60;;
27792;SDS011;15174;48.190;11.462;2024-03-23T06:08:02;2.58;;;1.65;;
27792;SDS011;15174;48.190;11.462;2024-03-23T06:10:28;7.00;;;1.58;;
27792;SDS011;15174;48.190;11.462;2024-03-23T06:12:54;6.30;;;1.30;;
27792;SDS011;15174;48.190;11.462;2024-03-23T06:15:20;2.08;;;1.33;;
27792;SDS011;15174;48.190;11.462;2024-03-23T06:17:47;5.18;;;1.40;;
27792;SDS011;15174;48.190;11.462;2024-03-23T06:20:14;10.05;;;1.45;;
27792;SDS011;15174;48.190;11.462;2024-03-23T06:22:40;3.17;;;1.13;;
27792;SDS011;15174;48.190;11.462;2024-03-23T06:25:06;3.78;;;1.10;;
27792;SDS011;15174;48.190;11.462;2024-03-23T06:27:32;1.85;;;0.77;;
27792;SDS011;15174;48.190;11.462;2024-03-23T06:29:59;2.67;;;1.20;;
27792;SDS011;15174;48.190;11.462;2024-03-23T06:32:25;6.28;;;1.20;;
27792;SDS011;15174;48.190;11.462;2024-03-23T06:34:51;3.70;;;1.33;;
27792;SDS011;15174;48.190;11.462;2024-03-23T06:37:17;1.63;;;0.90;;
27792;SDS011;15174;48.190;11.462;2024-03-23T06:39:45;3.35;;;0.98;;
27792;SDS011;15174;48.190;11.462;2024-03-23T06:42:11;1.63;;;1.00;;
27792;SDS011;15174;48.190;11.462;2024-03-23T06:44:38;1.55;;;0.80;;
27792;SDS011;15174;48.190;11.462;2024-03-23T06:47:04;2.50;;;0.90;;
27792;SDS011;15174;48.190;11.462;2024-03-23T06:49:30;3.65;;;0.90;;
27792;SDS011;15174;48.190;11.462;2024-03-23T06:51:56;6.63;;;0.77;;
27792;SDS011;15174;48.190;11.462;2024-03-23T06:54:24;1.83;;;0.70;;
27792;SDS011;15174;48.190;11.462;2024-03-23T06:59:16;1.65;;;0.82;;
27792;SDS011;15174;48.190;11.462;2024-03-23T07:01:42;1.38;;;0.70;;
27792;SDS011;15174;48.190;11.462;2024-03-23T07:04:08;4.47;;;0.70;;
27792;SDS011;15174;48.190;11.462;2024-03-23T07:06:42;1.83;;;0.70;;
27792;SDS011;15174;48.190;11.462;2024-03-23T07:09:09;1.63;;;0.80;;
27792;SDS011;15174;48.190;11.462;2024-03-23T07:11:35;2.13;;;0.80;;
27792;SDS011;15174;48.190;11.462;2024-03-23T07:14:01;3.20;;;0.90;;
27792;SDS011;15174;48.190;11.462;2024-03-23T07:16:28;5.32;;;0.90;;
27792;SDS011;15174;48.190;11.462;2024-03-23T07:18:54;6.40;;;0.93;;
27792;SDS011;15174;48.190;11.462;2024-03-23T07:21:20;3.03;;;1.30;;
27792;SDS011;15174;48.190;11.462;2024-03-23T07:23:47;2.97;;;1.10;;
27792;SDS011;15174;48.190;11.462;2024-03-23T07:26:13;9.55;;;1.35;;
27792;SDS011;15174;48.190;11.462;2024-03-23T07:28:39;3.42;;;1.25;;
27792;SDS011;15174;48.190;11.462;2024-03-23T07:31:11;2.75;;;0.90;;
27792;SDS011;15174;48.190;11.462;2024-03-23T07:36:04;3.67;;;1.30;;
27792;SDS011;15174;48.190;11.462;2024-03-23T07:38:30;3.80;;;1.90;;
27792;SDS011;15174;48.190;11.462;2024-03-23T07:41:03;4.10;;;1.55;;
27792;SDS011;15174;48.190;11.462;2024-03-23T07:43:29;1.48;;;1.15;;
27792;SDS011;15174;48.190;11.462;2024-03-23T07:45:55;3.97;;;1.40;;
27792;SDS011;15174;48.190;11.462;2024-03-23T07:48:21;4.95;;;1.20;;
27792;SDS011;15174;48.190;11.462;2024-03-23T07:53:31;6.72;;;1.70;;
27792;SDS011;15174;48.190;11.462;2024-03-23T07:56:01;6.18;;;1.70;;
27792;SDS011;15174;48.190;11.462;2024-03-23T07:58:27;2.70;;;1.45;;
27792;SDS011;15174;48.190;11.462;2024-03-23T08:00:54;7.25;;;1.92;;
27792;SDS011;15174;48.190;11.462;2024-03-23T08:03:20;4.10;;;1.60;;
27792;SDS011;15174;48.190;11.462;2024-03-23T08:05:46;3.45;;;1.85;;
27792;SDS011;15174;48.190;11.462;2024-03-23T08:08:13;6.10;;;1.27;;
27792;SDS011;15174;48.190;11.462;2024-03-23T08:10:48;3.53;;;1.90;;
27792;SDS011;15174;48.190;11.462;2024-03-23T08:13:14;2.58;;;1.80;;
27792;SDS011;15174;48.190;11.462;2024-03-23T08:15:41;3.47;;;1.60;;
27792;SDS011;15174;48.190;11.462;2024-03-23T08:18:07;5.00;;;1.92;;
27792;SDS011;15174;48.190;11.462;2024-03-23T08:20:33;3.55;;;1.80;;
27792;SDS011;15174;48.190;11.462;2024-03-23T08:22:59;2.63;;;1.48;;
27792;SDS011;15174;48.190;11.462;2024-03-23T08:25:25;4.80;;;1.58;;
27792;SDS011;15174;48.190;11.462;2024-03-23T08:27:51;2.63;;;1.45;;
27792;SDS011;15174;48.190;11.462;2024-03-23T08:30:17;2.78;;;1.35;;
27792;SDS011;15174;48.190;11.462;2024-03-23T08:32:43;2.15;;;1.08;;
27792;SDS011;15174;48.190;11.462;2024-03-23T08:35:11;3.88;;;1.80;;
27792;SDS011;15174;48.190;11.462;2024-03-23T08:37:37;2.25;;;1.38;;
27792;SDS011;15174;48.190;11.462;2024-03-23T08:40:03;4.90;;;1.58;;
27792;SDS011;15174;48.190;11.462;2024-03-23T08:42:30;3.08;;;1.63;;
27792;SDS011;15174;48.190;11.462;2024-03-23T08:44:56;3.28;;;1.73;;
27792;SDS011;15174;48.190;11.462;2024-03-23T08:47:22;4.95;;;1.60;;
27792;SDS011;15174;48.190;11.462;2024-03-23T08:49:48;6.80;;;1.92;;
27792;SDS011;15174;48.190;11.462;2024-03-23T08:52:14;3.10;;;2.22;;
27792;SDS011;15174;48.190;11.462;2024-03-23T08:54:40;3.28;;;1.98;;
27792;SDS011;15174;48.190;11.462;2024-03-23T08:57:06;3.15;;;1.60;;
27792;SDS011;15174;48.190;11.462;2024-03-23T08:59:33;2.17;;;1.60;;
27792;SDS011;15174;48.190;11.462;2024-03-23T09:01:59;4.32;;;1.50;;
27792;SDS011;15174;48.190;11.462;2024-03-23T09:04:25;2.00;;;1.65;;
27792;SDS011;15174;48.190;11.462;2024-03-23T09:06:51;3.92;;;1.90;;
27792;SDS011;15174;48.190;11.462;2024-03-23T09:09:17;3.83;;;2.20;;
27792;SDS011;15174;48.190;11.462;2024-03-23T09:11:45;3.97;;;2.33;;
27792;SDS011;15174;48.190;11.462;2024-03-23T09:14:11;2.28;;;1.50;;
27792;SDS011;15174;48.190;11.462;2024-03-23T09:16:37;2.72;;;2.08;;
27792;SDS011;15174;48.190;11.462;2024-03-23T09:19:03;5.38;;;3.00;;
27792;SDS011;15174;48.190;11.462;2024-03-23T09:21:29;4.60;;;2.83;;
27792;SDS011;15174;48.190;11.462;2024-03-23T09:23:55;5.72;;;2.50;;
27792;SDS011;15174;48.190;11.462;2024-03-23T09:26:22;7.78;;;3.40;;
27792;SDS011;15174;48.190;11.462;2024-03-23T09:28:49;4.97;;;2.90;;
27792;SDS011;15174;48.190;11.462;2024-03-23T09:31:15;13.98;;;5.53;;
27792;SDS011;15174;48.190;11.462;2024-03-23T09:33:41;5.55;;;2.40;;
27792;SDS011;15174;48.190;11.462;2024-03-23T09:36:07;11.88;;;2.70;;
27792;SDS011;15174;48.190;11.462;2024-03-23T09:38:34;2.63;;;1.55;;
27792;SDS011;15174;48.190;11.462;2024-03-23T09:41:00;5.30;;;1.85;;
27792;SDS011;15174;48.190;11.462;2024-03-23T09:43:26;10.75;;;2.53;;
27792;SDS011;15174;48.190;11.462;2024-03-23T09:45:52;3.17;;;1.90;;
27792;SDS011;15174;48.190;11.462;2024-03-23T09:48:19;2.72;;;1.75;;
27792;SDS011;15174;48.190;11.462;2024-03-23T09:50:45;3.72;;;2.10;;
27792;SDS011;15174;48.190;11.462;2024-03-23T09:53:15;2.65;;;1.55;;
27792;SDS011;15174;48.190;11.462;2024-03-23T09:55:42;9.90;;;1.70;;
27792;SDS011;15174;48.190;11.462;2024-03-23T09:58:11;2.30;;;1.77;;
27792;SDS011;15174;48.190;11.462;2024-03-23T10:00:38;3.78;;;1.75;;
27792;SDS011;15174;48.190;11.462;2024-03-23T10:03:04;5.80;;;2.03;;
27792;SDS011;15174;48.190;11.462;2024-03-23T10:05:31;3.45;;;1.77;;
27792;SDS011;15174;48.190;11.462;2024-03-23T10:07:59;3.45;;;1.65;;
27792;SDS011;15174;48.190;11.462;2024-03-23T10:10:25;2.58;;;1.50;;
27792;SDS011;15174;48.190;11.462;2024-03-23T10:12:52;4.55;;;1.25;;
27792;SDS011;15174;48.190;11.462;2024-03-23T10:15:24;3.50;;;1.67;;
27792;SDS011;15174;48.190;11.462;2024-03-23T10:17:51;1.88;;;0.93;;
27792;SDS011;15174;48.190;11.462;2024-03-23T10:20:21;1.85;;;1.10;;
27792;SDS011;15174;48.190;11.462;2024-03-23T10:22:48;1.65;;;1.15;;
27792;SDS011;15174;48.190;11.462;2024-03-23T10:25:14;3.15;;;1.50;;
27792;SDS011;15174;48.190;11.462;2024-03-23T10:27:40;2.88;;;1.25;;
27792;SDS011;15174;48.190;11.462;2024-03-23T10:30:10;3.80;;;1.70;;
27792;SDS011;15174;48.190;11.462;2024-03-23T10:32:37;1.98;;;1.15;;
27792;SDS011;15174;48.190;11.462;2024-03-23T10:35:16;1.42;;;1.05;;
27792;SDS011;15174;48.190;11.462;2024-03-23T10:37:44;1.52;;;1.00;;
27792;SDS011;15174;48.190;11.462;2024-03-23T10:40:11;1.90;;;1.60;;
27792;SDS011;15174;48.190;11.462;2024-03-23T10:42:38;1.63;;;1.00;;
27792;SDS011;15174;48.190;11.462;2024-03-23T10:45:05;1.13;;;0.90;;
27792;SDS011;15174;48.190;11.462;2024-03-23T10:47:31;0.30;;;0.30;;
27792;SDS011;15174;48.190;11.462;2024-03-23T10:49:58;0.68;;;0.60;;
27792;SDS011;15174;48.190;11.462;2024-03-23T10:52:24;0.75;;;0.63;;
27792;SDS011;15174;48.190;11.462;2024-03-23T10:54:53;0.75;;;0.45;;
27792;SDS011;15174;48.190;11.462;2024-03-23T10:57:20;0.50;;;0.40;;
27792;SDS011;15174;48.190;11.462;2024-03-23T10:59:47;1.52;;;0.60;;
27792;SDS011;15174;48.190;11.462;2024-03-23T11:02:19;0.40;;;0.40;;
27792;SDS011;15174;48.190;11.462;2024-03-23T11:04:46;1.63;;;0.52;;
27792;SDS011;15174;48.190;11.462;2024-03-23T11:09:50;3.33;;;1.10;;
27792;SDS011;15174;48.190;11.462;2024-03-23T11:15:05;2.38;;;1.10;;
27792;SDS011;15174;48.190;11.462;2024-03-23T11:17:32;2.78;;;1.52;;
27792;SDS011;15174;48.190;11.462;2024-03-23T11:20:01;1.23;;;0.60;;
27792;SDS011;15174;48.190;11.462;2024-03-23T11:22:46;1.25;;;0.80;;
27792;SDS011;15174;48.190;11.462;2024-03-23T11:25:13;1.30;;;0.80;;
27792;SDS011;15174;48.190;11.462;2024-03-23T11:27:41;1.00;;;0.80;;
27792;SDS011;15174;48.190;11.462;2024-03-23T11:30:14;1.92;;;1.10;;
27792;SDS011;15174;48.190;11.462;2024-03-23T11:32:41;1.73;;;1.10;;
27792;SDS011;15174;48.190;11.462;2024-03-23T11:35:07;4.35;;;1.20;;
27792;SDS011;15174;48.190;11.462;2024-03-23T11:37:35;1.70;;;1.00;;
27792;SDS011;15174;48.190;11.462;2024-03-23T11:40:16;3.33;;;1.30;;
27792;SDS011;15174;48.190;11.462;2024-03-23T11:42:42;2.08;;;1.23;;
27792;SDS011;15174;48.190;11.462;2024-03-23T11:45:08;1.75;;;1.10;;
27792;SDS011;15174;48.190;11.462;2024-03-23T11:47:34;2.13;;;1.15;;
27792;SDS011;15174;48.190;11.462;2024-03-23T11:50:00;3.47;;;0.93;;
27792;SDS011;15174;48.190;11.462;2024-03-23T11:52:26;1.77;;;1.00;;
27792;SDS011;15174;48.190;11.462;2024-03-23T11:55:02;1.00;;;0.88;;
27792;SDS011;15174;48.190;11.462;2024-03-23T11:57:29;3.08;;;1.13;;
27792;SDS011;15174;48.190;11.462;2024-03-23T11:59:55;2.80;;;1.88;;
27792;SDS011;15174;48.190;11.462;2024-03-23T12:02:21;4.30;;;1.08;;
27792;SDS011;15174;48.190;11.462;2024-03-23T12:04:47;3.05;;;1.58;;
27792;SDS011;15174;48.190;11.462;2024-03-23T12:07:19;2.90;;;1.20;;
27792;SDS011;15174;48.190;11.462;2024-03-23T12:10:08;4.60;;;1.10;;
27792;SDS011;15174;48.190;11.462;2024-03-23T12:12:33;3.53;;;1.60;;
27792;SDS011;15174;48.190;11.462;2024-03-23T12:15:06;17.30;;;4.63;;
27792;SDS011;15174;48.190;11.462;2024-03-23T12:17:33;9.52;;;3.20;;
27792;SDS011;15174;48.190;11.462;2024-03-23T12:19:59;5.60;;;1.73;;
27792;SDS011;15174;48.190;11.462;2024-03-23T12:22:25;2.60;;;1.55;;
27792;SDS011;15174;48.190;11.462;2024-03-23T12:24:52;3.00;;;1.73;;
27792;SDS011;15174;48.190;11.462;2024-03-23T12:27:18;2.35;;;1.40;;
27792;SDS011;15174;48.190;11.462;2024-03-23T12:29:44;8.40;;;1.52;;
27792;SDS011;15174;48.190;11.462;2024-03-23T12:32:12;3.33;;;1.30;;
27792;SDS011;15174;48.190;11.462;2024-03-23T12:34:38;4.13;;;1.65;;
27792;SDS011;15174;48.190;11.462;2024-03-23T12:37:04;7.72;;;1.60;;
27792;SDS011;15174;48.190;11.462;2024-03-23T12:39:34;5.35;;;1.88;;
27792;SDS011;15174;48.190;11.462;2024-03-23T12:42:01;6.90;;;2.58;;
27792;SDS011;15174;48.190;11.462;2024-03-23T12:44:30;6.03;;;1.85;;
27792;SDS011;15174;48.190;11.462;2024-03-23T12:46:56;1.25;;;0.93;;
27792;SDS011;15174;48.190;11.462;2024-03-23T12:49:22;5.53;;;1.60;;
27792;SDS011;15174;48.190;11.462;2024-03-23T12:51:57;2.80;;;1.60;;
27792;SDS011;15174;48.190;11.462;2024-03-23T12:54:25;5.47;;;1.27;;
27792;SDS011;15174;48.190;11.462;2024-03-23T12:56:51;3.30;;;1.40;;
27792;SDS011;15174;48.190;11.462;2024-03-23T12:59:17;3.90;;;1.67;;
27792;SDS011;15174;48.190;11.462;2024-03-23T13:01:43;4.88;;;1.98;;
27792;SDS011;15174;48.190;11.462;2024-03-23T13:04:10;5.10;;;1.60;;
27792;SDS011;15174;48.190;11.462;2024-03-23T13:06:37;6.88;;;1.20;;
27792;SDS011;15174;48.190;11.462;2024-03-23T13:09:04;8.27;;;1.70;;
27792;SDS011;15174;48.190;11.462;2024-03-23T13:11:30;2.95;;;1.30;;
27792;SDS011;15174;48.190;11.462;2024-03-23T13:13:56;4.82;;;1.52;;
27792;SDS011;15174;48.190;11.462;2024-03-23T13:16:22;3.25;;;1.15;;
27792;SDS011;15174;48.190;11.462;2024-03-23T13:18:48;5.97;;;2.15;;
27792;SDS011;15174;48.190;11.462;2024-03-23T13:21:15;2.30;;;1.50;;
27792;SDS011;15174;48.190;11.462;2024-03-23T13:23:42;5.32;;;1.48;;
27792;SDS011;15174;48.190;11.462;2024-03-23T13:26:10;5.10;;;1.80;;
27792;SDS011;15174;48.190;11.462;2024-03-23T13:28:37;4.50;;;1.65;;
27792;SDS011;15174;48.190;11.462;2024-03-23T13:31:03;6.82;;;1.90;;
27792;SDS011;15174;48.190;11.462;2024-03-23T13:33:29;3.10;;;1.60;;
27792;SDS011;15174;48.190;11.462;2024-03-23T13:35:57;5.05;;;1.90;;
27792;SDS011;15174;48.190;11.462;2024-03-23T13:38:23;4.38;;;1.23;;
27792;SDS011;15174;48.190;11.462;2024-03-23T13:40:50;4.88;;;1.58;;
27792;SDS011;15174;48.190;11.462;2024-03-23T13:43:16;5.43;;;1.85;;
27792;SDS011;15174;48.190;11.462;2024-03-23T13:45:42;3.90;;;1.77;;
27792;SDS011;15174;48.190;11.462;2024-03-23T13:48:09;4.88;;;2.08;;
27792;SDS011;15174;48.190;11.462;2024-03-23T13:50:35;7.15;;;2.45;;
27792;SDS011;15174;48.190;11.462;2024-03-23T13:53:01;6.57;;;2.58;;
27792;SDS011;15174;48.190;11.462;2024-03-23T13:55:27;4.20;;;2.38;;
27792;SDS011;15174;48.190;11.462;2024-03-23T13:57:53;8.00;;;2.30;;
27792;SDS011;15174;48.190;11.462;2024-03-23T14:00:19;5.75;;;2.67;;
27792;SDS011;15174;48.190;11.462;2024-03-23T14:02:45;9.00;;;3.28;;
27792;SDS011;15174;48.190;11.462;2024-03-23T14:05:12;6.70;;;2.33;;
27792;SDS011;15174;48.190;11.462;2024-03-23T14:07:38;6.10;;;2.42;;
27792;SDS011;15174;48.190;11.462;2024-03-23T14:10:04;8.30;;;2.90;;
27792;SDS011;15174;48.190;11.462;2024-03-23T14:12:36;6.32;;;2.72;;
27792;SDS011;15174;48.190;11.462;2024-03-23T14:15:05;5.05;;;2.53;;
27792;SDS011;15174;48.190;11.462;2024-03-23T14:17:31;6.03;;;2.95;;
27792;SDS011;15174;48.190;11.462;2024-03-23T14:19:57;7.03;;;2.75;;
27792;SDS011;15174;48.190;11.462;2024-03-23T14:22:26;6.20;;;2.13;;
27792;SDS011;15174;48.190;11.462;2024-03-23T14:24:53;6.05;;;1.95;;
27792;SDS011;15174;48.190;11.462;2024-03-23T14:27:19;5.22;;;2.20;;
27792;SDS011;15174;48.190;11.462;2024-03-23T14:29:46;4.15;;;1.50;;
27792;SDS011;15174;48.190;11.462;2024-03-23T14:32:12;6.45;;;1.73;;
27792;SDS011;15174;48.190;11.462;2024-03-23T14:34:39;5.50;;;1.70;;
27792;SDS011;15174;48.190;11.462;2024-03-23T14:37:05;7.63;;;1.42;;
27792;SDS011;15174;48.190;11.462;2024-03-23T14:39:32;8.68;;;1.45;;
27792;SDS011;15174;48.190;11.462;2024-03-23T14:42:00;5.68;;;1.80;;
27792;SDS011;15174;48.190;11.462;2024-03-23T14:44:26;2.72;;;1.27;;
27792;SDS011;15174;48.190;11.462;2024-03-23T14:46:53;3.08;;;1.45;;
27792;SDS011;15174;48.190;11.462;2024-03-23T14:49:20;5.90;;;1.50;;
27792;SDS011;15174;48.190;11.462;2024-03-23T14:51:46;6.80;;;1.90;;
27792;SDS011;15174;48.190;11.462;2024-03-23T14:54:12;4.55;;;1.30;;
27792;SDS011;15174;48.190;11.462;2024-03-23T14:56:39;3.25;;;1.27;;
27792;SDS011;15174;48.190;11.462;2024-03-23T14:59:05;7.22;;;1.17;;
27792;SDS011;15174;48.190;11.462;2024-03-23T15:01:32;6.28;;;1.55;;
27792;SDS011;15174;48.190;11.462;2024-03-23T15:03:58;4.45;;;1.10;;
27792;SDS011;15174;48.190;11.462;2024-03-23T15:06:24;5.15;;;1.25;;
27792;SDS011;15174;48.190;11.462;2024-03-23T15:08:50;3.78;;;1.23;;
27792;SDS011;15174;48.190;11.462;2024-03-23T15:11:17;4.43;;;1.40;;
27792;SDS011;15174;48.190;11.462;2024-03-23T15:13:45;2.90;;;1.15;;
27792;SDS011;15174;48.190;11.462;2024-03-23T15:16:16;5.10;;;1.65;;
27792;SDS011;15174;48.190;11.462;2024-03-23T15:18:43;5.43;;;1.60;;
27792;SDS011;15174;48.190;11.462;2024-03-23T15:21:09;4.80;;;1.73;;
27792;SDS011;15174;48.190;11.462;2024-03-23T15:23:36;7.43;;;2.00;;
27792;SDS011;15174;48.190;11.462;2024-03-23T15:26:02;4.90;;;1.55;;
27792;SDS011;15174;48.190;11.462;2024-03-23T15:28:28;6.85;;;1.85;;
27792;SDS011;15174;48.190;11.462;2024-03-23T15:31:27;4.60;;;1.65;;
27792;SDS011;15174;48.190;11.462;2024-03-23T15:33:54;3.95;;;1.88;;
27792;SDS011;15174;48.190;11.462;2024-03-23T15:36:20;4.50;;;1.50;;
27792;SDS011;15174;48.190;11.462;2024-03-23T15:38:46;6.45;;;1.70;;